Time;durP1;ratioP1;P1;durP2;ratioP2;P2;SDS_P1;SDS_P2;PMS_P1;PMS_P2;Temp;Humidity;BMP_temperature;BMP_pressure;BME280_temperature;BME280_humidity;BME280_pressure;Samples;Min_cycle;Max_cycle;Signal;HPM_P1;HPM_P2
2023/08/31 00:01:48;;;;;;;8.17;4.03;;;;;;;10.29;100.00;100679.72;4886967;29;20032;-83
2023/08/31 00:04:16;;;;;;;8.95;4.40;;;;;;;10.25;100.00;100679.34;4902627;29;20487;-83
2023/08/31 00:06:42;;;;;;;9.45;4.20;;;;;;;10.22;100.00;100685.19;4887172;29;20040;-83
2023/08/31 00:09:09;;;;;;;7.37;4.40;;;;;;;10.18;100.00;100687.50;4902506;29;20388;-82
2023/08/31 00:11:35;;;;;;;7.93;4.43;;;;;;;10.15;100.00;100681.69;4887249;29;20032;-83
2023/08/31 00:14:01;;;;;;;8.43;4.65;;;;;;;10.12;100.00;100682.13;4919178;29;20480;-83
2023/08/31 00:16:29;;;;;;;8.60;5.00;;;;;;;10.11;100.00;100683.16;4901515;29;20033;-83
2023/08/31 00:18:56;;;;;;;8.02;5.40;;;;;;;10.09;100.00;100680.66;4886398;29;20396;-83
2023/08/31 00:21:22;;;;;;;8.10;4.97;;;;;;;10.07;100.00;100682.78;4918956;29;20446;-83
2023/08/31 00:23:48;;;;;;;6.35;5.20;;;;;;;10.06;100.00;100686.53;4871078;29;20045;-83
2023/08/31 00:26:14;;;;;;;9.80;5.57;;;;;;;10.04;100.00;100680.50;4902176;29;20389;-83
2023/08/31 00:28:42;;;;;;;10.10;6.28;;;;;;;10.01;100.00;100679.03;4886618;29;20532;-83
2023/08/31 00:31:08;;;;;;;10.85;5.43;;;;;;;9.98;100.00;100673.19;4919215;29;20038;-83
2023/08/31 00:33:36;;;;;;;8.52;5.82;;;;;;;9.95;100.00;100671.78;4918929;29;20066;-83
2023/08/31 00:36:03;;;;;;;11.02;5.57;;;;;;;9.94;100.00;100678.22;4902041;29;20155;-83
2023/08/31 00:38:28;;;;;;;11.38;6.13;;;;;;;9.94;100.00;100682.84;4902431;29;20473;-83
2023/08/31 00:40:54;;;;;;;10.18;5.95;;;;;;;9.90;100.00;100682.41;4902177;29;20030;-83
2023/08/31 00:43:20;;;;;;;12.53;6.20;;;;;;;9.86;100.00;100680.34;4886257;29;20066;-83
2023/08/31 00:45:48;;;;;;;8.75;5.93;;;;;;;9.84;100.00;100677.84;4901759;29;20086;-83
2023/08/31 00:48:16;;;;;;;11.37;6.20;;;;;;;9.84;100.00;100683.28;4901052;29;20392;-83
2023/08/31 00:50:43;;;;;;;9.60;5.85;;;;;;;9.81;100.00;100681.81;4918850;29;20024;-83
2023/08/31 00:53:14;;;;;;;9.43;6.35;;;;;;;9.78;100.00;100676.00;4901738;29;20028;-82
2023/08/31 00:55:42;;;;;;;11.57;6.88;;;;;;;9.78;100.00;100678.72;4901502;29;20064;-83
2023/08/31 00:58:10;;;;;;;9.63;6.22;;;;;;;9.75;100.00;100681.88;4886803;29;20132;-82
2023/08/31 01:01:27;;;;;;;13.60;7.13;;;;;;;9.72;100.00;100677.69;4901480;29;20040;-83
2023/08/31 01:04:16;;;;;;;11.05;6.70;;;;;;;9.69;100.00;100680.84;4863345;29;20573;-83
2023/08/31 01:06:53;;;;;;;10.50;6.43;;;;;;;9.69;100.00;100677.31;4916442;29;20047;-83
2023/08/31 01:09:49;;;;;;;8.77;6.35;;;;;;;9.65;100.00;100669.59;4901615;29;20036;-83
2023/08/31 01:12:52;;;;;;;9.10;6.40;;;;;;;9.63;100.00;100679.81;4901400;29;20043;-83
2023/08/31 01:15:18;;;;;;;13.63;7.00;;;;;;;9.64;100.00;100675.22;4844406;29;20095;-83
2023/08/31 01:17:50;;;;;;;11.55;6.35;;;;;;;9.62;100.00;100677.31;4889661;29;20036;-83
2023/08/31 01:20:21;;;;;;;10.05;6.43;;;;;;;9.62;100.00;100670.00;4900823;29;20044;-83
2023/08/31 01:22:55;;;;;;;9.88;6.57;;;;;;;9.60;100.00;100669.41;4901291;29;20138;-83
2023/08/31 01:25:24;;;;;;;11.85;7.10;;;;;;;9.59;100.00;100667.72;4900847;29;20028;-83
2023/08/31 01:27:51;;;;;;;11.60;6.93;;;;;;;9.59;100.00;100683.16;4885155;29;20060;-83
2023/08/31 01:30:17;;;;;;;10.25;6.97;;;;;;;9.58;100.00;100673.34;4886211;29;20059;-83
2023/08/31 01:32:47;;;;;;;10.73;6.93;;;;;;;9.58;100.00;100681.50;4918103;29;20427;-83
2023/08/31 01:35:19;;;;;;;12.48;7.57;;;;;;;9.58;100.00;100676.06;4901135;29;20036;-83
2023/08/31 01:37:57;;;;;;;14.63;7.80;;;;;;;9.56;100.00;100676.28;4900756;29;20036;-83
2023/08/31 01:40:48;;;;;;;10.25;7.65;;;;;;;9.57;100.00;100682.56;4900679;29;20075;-83
2023/08/31 01:43:14;;;;;;;15.30;8.32;;;;;;;9.56;100.00;100686.28;4901297;29;20043;-83
2023/08/31 01:45:41;;;;;;;12.68;8.18;;;;;;;9.55;100.00;100688.19;4885667;29;20037;-83
2023/08/31 01:48:07;;;;;;;16.30;8.82;;;;;;;9.55;100.00;100687.34;4900135;29;20432;-83
2023/08/31 01:50:32;;;;;;;14.17;8.60;;;;;;;9.56;100.00;100694.41;4900732;29;20094;-83
2023/08/31 01:52:58;;;;;;;15.33;9.47;;;;;;;9.54;100.00;100686.50;4885022;29;20036;-83
2023/08/31 01:55:24;;;;;;;14.60;9.18;;;;;;;9.58;100.00;100692.31;4900428;29;20040;-83
2023/08/31 01:57:49;;;;;;;15.57;9.10;;;;;;;9.58;100.00;100681.50;4900932;29;20028;-83
2023/08/31 02:00:17;;;;;;;15.23;9.60;;;;;;;9.61;100.00;100690.03;4900517;29;20448;-83
2023/08/31 02:02:49;;;;;;;16.23;10.07;;;;;;;9.65;100.00;100690.44;4900466;29;20040;-83
2023/08/31 02:05:15;;;;;;;16.48;9.73;;;;;;;9.71;100.00;100686.88;4885621;29;20500;-83
2023/08/31 02:07:40;;;;;;;18.98;10.98;;;;;;;9.76;100.00;100692.47;4884858;29;20246;-83
2023/08/31 02:10:06;;;;;;;16.88;10.38;;;;;;;9.81;100.00;100691.84;4869492;29;20043;-83
2023/08/31 02:12:32;;;;;;;17.07;10.37;;;;;;;9.83;100.00;100693.28;4900480;29;20063;-83
2023/08/31 02:14:58;;;;;;;15.18;9.50;;;;;;;9.89;100.00;100698.88;4900341;29;20492;-83
2023/08/31 02:17:23;;;;;;;15.47;9.63;;;;;;;9.91;100.00;100703.06;4884191;29;20046;-83
2023/08/31 02:19:49;;;;;;;18.10;10.02;;;;;;;9.95;100.00;100712.44;4917040;29;20052;-83
2023/08/31 02:22:14;;;;;;;14.03;10.33;;;;;;;9.98;100.00;100703.88;4900266;29;20404;-83
2023/08/31 02:24:39;;;;;;;16.83;9.80;;;;;;;10.00;100.00;100692.81;4900335;29;20469;-83
2023/08/31 02:27:05;;;;;;;17.07;10.03;;;;;;;10.04;100.00;100704.03;4900249;29;20123;-83
2023/08/31 02:29:30;;;;;;;18.97;9.87;;;;;;;10.07;100.00;100693.63;4869343;29;20480;-83
2023/08/31 02:31:55;;;;;;;16.33;9.43;;;;;;;10.07;100.00;100696.31;4900613;29;20036;-83
2023/08/31 02:34:21;;;;;;;15.88;9.45;;;;;;;10.06;100.00;100693.84;4900278;29;20280;-83
2023/08/31 02:36:46;;;;;;;15.47;9.37;;;;;;;10.04;100.00;100691.34;4901697;29;20396;-83
2023/08/31 02:39:12;;;;;;;11.93;8.53;;;;;;;9.99;100.00;100691.13;4888311;29;20377;-83
2023/08/31 02:41:38;;;;;;;15.95;10.18;;;;;;;9.95;100.00;100698.88;4888398;29;20127;-83
2023/08/31 02:44:04;;;;;;;21.03;10.60;;;;;;;9.92;100.00;100703.88;4888541;29;20032;-83
2023/08/31 02:46:29;;;;;;;19.67;11.63;;;;;;;9.93;100.00;100697.41;4903635;29;20028;-83
2023/08/31 02:48:55;;;;;;;21.00;12.83;;;;;;;9.92;100.00;100706.59;4888450;29;20040;-83
2023/08/31 02:51:20;;;;;;;31.13;15.53;;;;;;;9.91;100.00;100694.09;4904042;29;20130;-83
2023/08/31 02:53:45;;;;;;;27.57;16.07;;;;;;;9.90;100.00;100693.25;4888499;29;20024;-83
2023/08/31 02:56:11;;;;;;;33.97;16.98;;;;;;;9.88;100.00;100697.25;4888267;29;20480;-83
2023/08/31 02:58:37;;;;;;;31.50;17.97;;;;;;;9.86;100.00;100702.84;4888326;29;20036;-83
2023/08/31 03:01:13;;;;;;;35.20;19.33;;;;;;;9.83;100.00;100695.16;4888175;29;20064;-83
2023/08/31 03:03:39;;;;;;;36.58;18.83;;;;;;;9.82;100.00;100691.63;4920572;29;20110;-83
2023/08/31 03:06:08;;;;;;;32.53;18.33;;;;;;;9.77;100.00;100691.44;4872991;29;20052;-83
2023/08/31 03:08:33;;;;;;;35.50;18.75;;;;;;;9.74;100.00;100693.75;4903933;29;20067;-83
2023/08/31 03:10:59;;;;;;;28.17;16.93;;;;;;;9.72;100.00;100696.66;4903604;29;20437;-83
2023/08/31 03:13:24;;;;;;;33.60;16.60;;;;;;;9.66;100.00;100692.09;4920621;29;20507;-82
2023/08/31 03:15:50;;;;;;;29.67;16.45;;;;;;;9.63;100.00;100695.25;4888145;29;20043;-82
2023/08/31 03:18:15;;;;;;;26.80;16.30;;;;;;;9.60;100.00;100696.50;4903021;29;20029;-83
2023/08/31 03:20:41;;;;;;;27.98;16.05;;;;;;;9.57;100.00;100701.50;4920150;29;20060;-83
2023/08/31 03:23:06;;;;;;;25.20;15.60;;;;;;;9.53;100.00;100703.78;4903630;29;20044;-83
2023/08/31 03:25:31;;;;;;;28.47;15.43;;;;;;;9.51;100.00;100700.47;4872217;29;20036;-82
2023/08/31 03:27:57;;;;;;;25.67;15.47;;;;;;;9.50;100.00;100708.81;4872400;29;20096;-83
2023/08/31 03:30:22;;;;;;;27.53;15.63;;;;;;;9.50;100.00;100706.09;4903390;29;20051;-83
2023/08/31 03:32:48;;;;;;;30.02;16.90;;;;;;;9.49;100.00;100710.66;4887780;29;20091;-83
2023/08/31 03:35:13;;;;;;;32.20;17.50;;;;;;;9.48;100.00;100704.44;4903230;29;20048;-83
2023/08/31 03:37:41;;;;;;;35.37;19.10;;;;;;;9.50;100.00;100708.81;4903149;29;20122;-83
2023/08/31 03:40:07;;;;;;;34.10;18.50;;;;;;;9.54;100.00;100701.94;4903018;29;20032;-83
2023/08/31 03:42:35;;;;;;;37.70;19.27;;;;;;;9.57;100.00;100707.75;4887479;29;20036;-82
2023/08/31 03:45:03;;;;;;;35.50;19.67;;;;;;;9.58;100.00;100698.59;4887345;29;20055;-83
2023/08/31 03:47:29;;;;;;;42.83;21.60;;;;;;;9.59;100.00;100694.81;4871107;29;20123;-83
2023/08/31 03:49:54;;;;;;;42.83;22.30;;;;;;;9.58;100.00;100689.59;4902896;29;20115;-82
2023/08/31 03:52:19;;;;;;;47.97;21.90;;;;;;;9.57;100.00;100698.81;4887341;29;20036;-83
2023/08/31 03:54:45;;;;;;;47.93;21.93;;;;;;;9.56;100.00;100692.53;4902771;29;20160;-82
2023/08/31 03:57:10;;;;;;;49.33;21.40;;;;;;;9.55;100.00;100688.19;4902795;29;20127;-83
2023/08/31 03:59:36;;;;;;;49.10;21.90;;;;;;;9.52;100.00;100691.28;4902845;29;20047;-83
2023/08/31 04:02:01;;;;;;;44.03;22.10;;;;;;;9.54;100.00;100697.34;4886980;29;20036;-84
2023/08/31 04:04:29;;;;;;;46.00;21.87;;;;;;;9.54;100.00;100691.94;4902629;29;20073;-83
2023/08/31 04:06:55;;;;;;;42.65;22.30;;;;;;;9.52;100.00;100701.31;4871758;29;20480;-83
2023/08/31 04:09:20;;;;;;;43.15;21.48;;;;;;;9.52;100.00;100696.72;4886733;29;20033;-83
2023/08/31 04:11:46;;;;;;;41.77;20.80;;;;;;;9.52;100.00;100702.13;4887125;29;20123;-83
2023/08/31 04:14:11;;;;;;;41.47;21.48;;;;;;;9.53;100.00;100706.50;4902393;29;20495;-83
2023/08/31 04:16:36;;;;;;;36.30;19.90;;;;;;;9.54;100.00;100707.34;4886329;29;20040;-83
2023/08/31 04:19:02;;;;;;;39.27;19.67;;;;;;;9.52;100.00;100712.97;4871264;29;20040;-83
2023/08/31 04:21:27;;;;;;;38.57;19.27;;;;;;;9.52;100.00;100704.81;4867611;29;20064;-83
2023/08/31 04:23:53;;;;;;;37.33;19.37;;;;;;;9.51;100.00;100710.47;4899132;29;20119;-83
2023/08/31 04:26:20;;;;;;;31.38;18.35;;;;;;;9.51;100.00;100721.28;4899246;29;20041;-82
2023/08/31 04:28:45;;;;;;;31.83;18.17;;;;;;;9.51;100.00;100724.00;4899242;29;20040;-83
2023/08/31 04:31:11;;;;;;;33.50;17.60;;;;;;;9.49;100.00;100724.22;4899141;29;20029;-82
2023/08/31 04:33:38;;;;;;;28.30;16.90;;;;;;;9.47;100.00;100720.91;4898696;29;20036;-83
2023/08/31 04:36:04;;;;;;;28.30;16.35;;;;;;;9.45;100.00;100723.81;4883622;29;20035;-83
2023/08/31 04:38:34;;;;;;;33.22;16.98;;;;;;;9.46;100.00;100720.06;4867776;29;20048;-83
2023/08/31 04:41:00;;;;;;;30.38;15.75;;;;;;;9.45;100.00;100726.53;4883325;29;20123;-83
2023/08/31 04:43:27;;;;;;;27.77;14.97;;;;;;;9.45;100.00;100736.53;4883152;29;20477;-83
2023/08/31 04:45:53;;;;;;;31.65;15.73;;;;;;;9.44;100.00;100727.56;4883013;29;20032;-83
2023/08/31 04:48:18;;;;;;;30.02;15.45;;;;;;;9.47;100.00;100737.97;4882321;29;20068;-83
2023/08/31 04:50:46;;;;;;;30.27;14.87;;;;;;;9.46;100.00;100739.03;4883518;29;20483;-83
2023/08/31 04:53:12;;;;;;;25.30;14.20;;;;;;;9.44;100.00;100732.97;4898597;29;20043;-83
2023/08/31 04:55:38;;;;;;;24.60;13.43;;;;;;;9.46;100.00;100738.19;4883196;29;20499;-83
2023/08/31 04:58:04;;;;;;;27.23;13.70;;;;;;;9.45;100.00;100742.78;4867399;29;20289;-83
2023/08/31 05:00:30;;;;;;;22.98;13.55;;;;;;;9.45;100.00;100737.34;4881924;29;20028;-83
2023/08/31 05:02:55;;;;;;;19.08;12.55;;;;;;;9.47;100.00;100746.09;4900016;29;20517;-83
2023/08/31 05:05:21;;;;;;;21.55;12.43;;;;;;;9.46;100.00;100740.88;4882579;29;20048;-83
2023/08/31 05:07:46;;;;;;;22.50;11.37;;;;;;;9.46;100.00;100747.16;4882626;29;20088;-83
2023/08/31 05:10:12;;;;;;;18.93;11.67;;;;;;;9.45;100.00;100745.47;4882815;29;20084;-83
2023/08/31 05:12:38;;;;;;;19.75;11.88;;;;;;;9.46;100.00;100749.00;4882693;29;20393;-83
2023/08/31 05:15:03;;;;;;;18.40;10.97;;;;;;;9.46;100.00;100755.28;4882664;29;20044;-82
2023/08/31 05:17:30;;;;;;;17.80;11.07;;;;;;;9.47;100.00;100754.22;4882384;29;20045;-83
2023/08/31 05:19:55;;;;;;;17.95;10.75;;;;;;;9.51;100.00;100759.22;4882226;29;20044;-82
2023/08/31 05:22:26;;;;;;;20.97;11.47;;;;;;;9.54;100.00;100773.19;4882209;29;20052;-87
2023/08/31 05:25:17;;;;;;;20.83;11.27;;;;;;;9.56;100.00;100762.97;4882489;29;20426;-87
2023/08/31 05:27:42;;;;;;;19.98;11.10;;;;;;;9.59;100.00;100770.66;4884790;29;20040;-87
2023/08/31 05:30:11;;;;;;;16.25;9.75;;;;;;;9.66;100.00;100779.63;4900461;29;20047;-87
2023/08/31 05:32:45;;;;;;;15.13;9.50;;;;;;;9.70;100.00;100781.91;4901437;29;20465;-88
2023/08/31 05:35:14;;;;;;;16.35;9.90;;;;;;;9.74;100.00;100783.16;4917788;29;20028;-86
2023/08/31 05:37:39;;;;;;;18.50;9.85;;;;;;;9.74;100.00;100780.44;4901412;29;20028;-85
2023/08/31 05:40:08;;;;;;;16.23;9.02;;;;;;;9.78;100.00;100785.22;4885312;29;20040;-83
2023/08/31 05:42:40;;;;;;;17.90;8.73;;;;;;;9.81;100.00;100795.63;4900875;29;20126;-85
2023/08/31 05:45:08;;;;;;;16.02;9.18;;;;;;;9.86;100.00;100796.88;4900654;29;20436;-86
2023/08/31 05:47:36;;;;;;;15.50;9.38;;;;;;;9.97;100.00;100788.09;4900361;29;20024;-86
2023/08/31 05:50:04;;;;;;;14.77;8.63;;;;;;;10.00;100.00;100791.22;4917632;29;20035;-86
2023/08/31 05:52:29;;;;;;;13.43;8.25;;;;;;;10.03;100.00;100789.13;4885265;29;20036;-86
2023/08/31 05:54:57;;;;;;;13.70;8.40;;;;;;;10.08;100.00;100789.31;4900725;29;20028;-88
2023/08/31 05:57:23;;;;;;;17.15;8.38;;;;;;;10.13;100.00;100792.22;4900526;29;20121;-84
2023/08/31 05:59:48;;;;;;;17.00;8.63;;;;;;;10.18;100.00;100795.13;4900474;29;20123;-85
2023/08/31 06:02:16;;;;;;;17.53;8.73;;;;;;;10.23;100.00;100791.75;4885130;29;20032;-83
2023/08/31 06:04:41;;;;;;;14.30;8.32;;;;;;;10.26;100.00;100796.75;4917647;29;20051;-84
2023/08/31 06:07:07;;;;;;;17.17;8.53;;;;;;;10.29;100.00;100794.47;4885191;29;20032;-85
2023/08/31 06:09:35;;;;;;;13.27;8.38;;;;;;;10.36;100.00;100802.59;4899996;29;20063;-86
2023/08/31 06:12:00;;;;;;;16.73;8.20;;;;;;;10.42;100.00;100795.47;4900112;29;20040;-85
2023/08/31 06:14:26;;;;;;;12.40;8.07;;;;;;;10.49;100.00;100810.66;4884279;29;20075;-85
2023/08/31 06:16:52;;;;;;;12.80;8.33;;;;;;;10.58;100.00;100807.72;4915885;29;20503;-82
2023/08/31 06:19:20;;;;;;;16.52;8.27;;;;;;;10.68;100.00;100806.19;4884387;29;20062;-85
2023/08/31 06:21:46;;;;;;;15.27;7.93;;;;;;;10.73;100.00;100813.66;4884038;29;20525;-85
2023/08/31 06:24:12;;;;;;;11.77;7.20;;;;;;;10.81;100.00;100812.59;4900226;29;20063;-85
2023/08/31 06:26:39;;;;;;;13.40;7.77;;;;;;;10.87;100.00;100826.13;4884512;29;20376;-85
2023/08/31 06:29:04;;;;;;;13.48;7.18;;;;;;;11.02;100.00;100816.84;4899891;29;20032;-87
2023/08/31 06:31:30;;;;;;;11.05;7.65;;;;;;;11.06;100.00;100820.81;4900616;29;20392;-84
2023/08/31 06:33:55;;;;;;;10.97;6.93;;;;;;;11.12;100.00;100828.06;4900032;29;20134;-85
2023/08/31 06:36:20;;;;;;;10.83;7.37;;;;;;;11.19;100.00;100828.84;4900403;29;20115;-85
2023/08/31 06:38:46;;;;;;;10.97;6.73;;;;;;;11.27;100.00;100816.88;4884391;29;20066;-84
2023/08/31 06:41:12;;;;;;;9.55;7.03;;;;;;;11.32;100.00;100821.66;4900605;29;20047;-84
2023/08/31 06:43:37;;;;;;;12.37;7.30;;;;;;;11.38;100.00;100832.47;4900069;29;20059;-85
2023/08/31 06:46:03;;;;;;;12.73;7.00;;;;;;;11.44;100.00;100830.75;4884129;29;20044;-85
2023/08/31 06:48:28;;;;;;;12.52;7.25;;;;;;;11.52;100.00;100827.75;4884061;29;20284;-85
2023/08/31 06:50:54;;;;;;;15.77;7.33;;;;;;;11.60;100.00;100834.78;4884480;29;20127;-85
2023/08/31 06:53:19;;;;;;;11.88;6.65;;;;;;;11.65;100.00;100843.13;4916690;29;20115;-85
2023/08/31 06:55:47;;;;;;;10.55;6.38;;;;;;;11.71;100.00;100844.94;4900075;29;20072;-86
2023/08/31 06:58:15;;;;;;;13.57;6.65;;;;;;;11.84;100.00;100841.28;4884558;29;20047;-85
2023/08/31 07:00:41;;;;;;;15.60;6.87;;;;;;;11.95;100.00;100845.16;4916554;29;20033;-85
2023/08/31 07:03:06;;;;;;;13.93;6.90;;;;;;;12.02;100.00;100848.66;4884332;29;20043;-85
2023/08/31 07:05:44;;;;;;;13.80;6.57;;;;;;;12.09;100.00;100852.13;4899659;29;20032;-85
2023/08/31 07:08:13;;;;;;;13.45;6.75;;;;;;;12.18;100.00;100851.81;4899807;29;20038;-85
2023/08/31 07:10:38;;;;;;;12.23;6.68;;;;;;;12.25;100.00;100855.31;4916691;29;20039;-85
2023/08/31 07:13:04;;;;;;;15.20;7.05;;;;;;;12.32;100.00;100856.06;4916818;29;20048;-85
2023/08/31 07:15:32;;;;;;;11.88;6.93;;;;;;;12.44;100.00;100858.84;4899896;29;20531;-86
2023/08/31 07:17:58;;;;;;;16.23;7.03;;;;;;;12.49;100.00;100856.28;4899550;29;20055;-86
2023/08/31 07:20:23;;;;;;;10.57;6.75;;;;;;;12.56;100.00;100857.06;4916447;29;20211;-86
2023/08/31 07:22:51;;;;;;;10.30;6.00;;;;;;;12.62;100.00;100850.69;4901222;29;20361;-85
2023/08/31 07:25:16;;;;;;;9.80;6.10;;;;;;;12.74;100.00;100860.78;4903186;29;20060;-85
2023/08/31 07:27:42;;;;;;;12.17;6.73;;;;;;;12.79;100.00;100850.88;4903056;29;20065;-85
2023/08/31 07:30:07;;;;;;;10.00;6.57;;;;;;;12.89;100.00;100854.91;4902779;29;20051;-85
2023/08/31 07:32:33;;;;;;;10.77;6.65;;;;;;;13.02;100.00;100853.91;4903024;29;20064;-86
2023/08/31 07:34:59;;;;;;;11.93;6.70;;;;;;;13.09;100.00;100858.19;4903383;29;20114;-85
2023/08/31 07:37:24;;;;;;;10.82;6.15;;;;;;;13.18;100.00;100861.44;4903429;29;20369;-85
2023/08/31 07:39:50;;;;;;;11.93;5.50;;;;;;;13.24;100.00;100856.94;4903117;29;20080;-85
2023/08/31 07:42:16;;;;;;;13.00;6.22;;;;;;;13.32;100.00;100860.16;4903529;29;20056;-87
2023/08/31 07:44:43;;;;;;;10.37;6.00;;;;;;;13.38;100.00;100860.34;4903057;29;20039;-85
2023/08/31 07:47:11;;;;;;;14.00;6.13;;;;;;;13.46;100.00;100866.28;4919137;29;20035;-83
2023/08/31 07:49:37;;;;;;;13.10;6.35;;;;;;;13.55;100.00;100863.19;4919415;29;20040;-83
2023/08/31 07:52:03;;;;;;;9.23;5.43;;;;;;;13.58;100.00;100863.59;4902292;29;20054;-83
2023/08/31 07:54:28;;;;;;;8.40;5.87;;;;;;;13.63;100.00;100860.97;4886910;29;20123;-83
2023/08/31 07:56:54;;;;;;;10.55;5.95;;;;;;;13.68;100.00;100865.72;4901503;29;20048;-83
2023/08/31 07:59:19;;;;;;;11.03;5.67;;;;;;;13.74;100.00;100872.13;4902647;29;20095;-83
2023/08/31 08:01:46;;;;;;;10.93;5.90;;;;;;;13.80;100.00;100873.91;4902818;29;20035;-83
2023/08/31 08:04:11;;;;;;;12.60;5.75;;;;;;;13.90;100.00;100867.88;4880208;29;20036;-83
2023/08/31 08:06:37;;;;;;;11.45;6.13;;;;;;;13.96;100.00;100864.19;4902474;29;20032;-83
2023/08/31 08:09:04;;;;;;;12.07;5.70;;;;;;;14.03;100.00;100876.63;4919206;29;20079;-83
2023/08/31 08:11:34;;;;;;;8.10;5.45;;;;;;;14.12;100.00;100877.09;4902632;29;20092;-83
2023/08/31 08:14:02;;;;;;;10.07;5.63;;;;;;;14.18;100.00;100876.13;4902787;29;20032;-84
2023/08/31 08:16:28;;;;;;;13.60;6.00;;;;;;;14.27;100.00;100875.78;4916758;29;20476;-84
2023/08/31 08:18:53;;;;;;;10.23;5.63;;;;;;;14.31;100.00;100872.34;4917088;29;20055;-83
2023/08/31 08:21:19;;;;;;;8.30;5.13;;;;;;;14.37;100.00;100886.94;4900655;29;20455;-82
2023/08/31 08:23:44;;;;;;;14.47;5.10;;;;;;;14.39;100.00;100882.03;4917606;29;20052;-83
2023/08/31 08:26:10;;;;;;;11.73;5.30;;;;;;;14.46;100.00;100890.94;4902592;29;20493;-83
2023/08/31 08:28:35;;;;;;;14.00;6.00;;;;;;;14.55;100.00;100884.03;4905795;29;20462;-83
2023/08/31 08:31:04;;;;;;;13.60;5.53;;;;;;;14.64;100.00;100884.50;4901552;29;20040;-83
2023/08/31 08:33:30;;;;;;;12.65;5.80;;;;;;;14.74;100.00;100883.91;4889825;29;20044;-84
2023/08/31 08:35:57;;;;;;;10.23;5.70;;;;;;;14.82;100.00;100902.66;4916343;29;20050;-83
2023/08/31 08:38:22;;;;;;;9.15;5.25;;;;;;;14.87;100.00;100889.06;4910825;29;20099;-83
2023/08/31 08:40:47;;;;;;;11.03;5.40;;;;;;;14.98;100.00;100883.81;4894989;29;20477;-83
2023/08/31 08:43:14;;;;;;;12.70;5.82;;;;;;;15.06;100.00;100894.38;4917434;29;20040;-83
2023/08/31 08:45:41;;;;;;;9.63;5.00;;;;;;;15.14;100.00;100898.59;4918408;29;20032;-83
2023/08/31 08:48:07;;;;;;;11.13;5.45;;;;;;;15.26;100.00;100896.63;4900847;29;20040;-83
2023/08/31 08:50:34;;;;;;;11.27;6.45;;;;;;;15.37;100.00;100895.75;4901637;29;20043;-83
2023/08/31 08:53:01;;;;;;;12.10;5.60;;;;;;;15.58;100.00;100899.66;4902468;29;20051;-83
2023/08/31 08:55:27;;;;;;;12.25;5.18;;;;;;;15.87;100.00;100910.56;4898446;29;20124;-83
2023/08/31 08:57:52;;;;;;;12.00;5.40;;;;;;;16.06;100.00;100902.94;4901801;29;20389;-83
2023/08/31 09:00:18;;;;;;;6.60;5.17;;;;;;;16.14;100.00;100905.22;4900887;29;20083;-84
2023/08/31 09:02:45;;;;;;;10.68;4.80;;;;;;;16.23;100.00;100911.09;4900718;29;20032;-81
2023/08/31 09:05:10;;;;;;;12.85;4.60;;;;;;;16.22;100.00;100911.34;4901435;29;20048;-82
2023/08/31 09:07:38;;;;;;;8.67;4.97;;;;;;;16.22;100.00;100905.88;4901145;29;20486;-83
2023/08/31 09:10:05;;;;;;;8.85;5.20;;;;;;;16.22;100.00;100911.34;4917109;29;20124;-82
2023/08/31 09:12:31;;;;;;;9.30;4.60;;;;;;;16.26;100.00;100916.06;4913607;29;20032;-82
2023/08/31 09:14:58;;;;;;;10.63;4.72;;;;;;;16.37;100.00;100908.00;4917846;29;20032;-82
2023/08/31 09:17:27;;;;;;;12.95;4.63;;;;;;;16.29;100.00;100909.25;4900372;29;20475;-82
2023/08/31 09:20:05;;;;;;;9.95;4.60;;;;;;;16.30;100.00;100910.94;4886027;29;20047;-82
2023/08/31 09:22:31;;;;;;;7.20;4.25;;;;;;;16.36;100.00;100920.88;4900934;29;20075;-82
2023/08/31 09:25:00;;;;;;;7.70;4.13;;;;;;;16.44;100.00;100914.94;4901155;29;20040;-82
2023/08/31 09:27:26;;;;;;;7.05;3.92;;;;;;;16.52;100.00;100915.59;4917841;29;20028;-82
2023/08/31 09:29:55;;;;;;;10.98;4.25;;;;;;;16.60;100.00;100921.47;4885141;29;20036;-82
2023/08/31 09:32:20;;;;;;;6.43;3.58;;;;;;;16.78;100.00;100914.00;4885570;29;20396;-82
2023/08/31 09:34:47;;;;;;;8.50;3.63;;;;;;;17.04;100.00;100920.66;4901253;29;20043;-82
2023/08/31 09:37:15;;;;;;;7.97;3.90;;;;;;;17.20;100.00;100924.41;4900708;29;20074;-82
2023/08/31 09:39:42;;;;;;;11.20;4.00;;;;;;;17.29;100.00;100922.84;4901138;29;20544;-82
2023/08/31 09:42:07;;;;;;;8.75;4.65;;;;;;;17.31;100.00;100917.09;4900615;29;20072;-82
2023/08/31 09:44:33;;;;;;;8.43;4.40;;;;;;;17.34;100.00;100916.56;4900306;29;20082;-83
2023/08/31 09:46:59;;;;;;;6.70;3.97;;;;;;;17.51;100.00;100922.78;4899708;29;20044;-82
2023/08/31 09:49:26;;;;;;;6.82;3.33;;;;;;;17.86;100.00;100913.22;4885567;29;20433;-82
2023/08/31 09:51:51;;;;;;;9.02;3.38;;;;;;;18.30;97.60;100916.81;4900689;29;20499;-82
2023/08/31 09:54:18;;;;;;;5.83;3.40;;;;;;;18.43;93.97;100924.59;4900622;29;20040;-83
2023/08/31 09:56:45;;;;;;;6.38;3.17;;;;;;;18.37;91.70;100917.41;4900551;29;20032;-82
2023/08/31 09:59:15;;;;;;;5.60;3.95;;;;;;;18.37;91.41;100925.66;4900361;29;20059;-82
2023/08/31 10:01:42;;;;;;;4.97;3.08;;;;;;;18.46;89.73;100913.06;4900425;29;20484;-82
2023/08/31 10:04:08;;;;;;;6.33;3.00;;;;;;;18.79;91.58;100918.44;4885026;29;20040;-82
2023/08/31 10:06:40;;;;;;;7.40;3.10;;;;;;;18.85;88.35;100909.94;4900202;29;20044;-82
2023/08/31 10:09:09;;;;;;;8.40;3.00;;;;;;;18.70;86.12;100932.66;4900288;29;20096;-82
2023/08/31 10:11:35;;;;;;;6.30;2.83;;;;;;;18.73;86.18;100929.41;4884831;29;20095;-83
2023/08/31 10:14:01;;;;;;;6.53;3.50;;;;;;;19.02;84.60;100926.25;4900294;29;20421;-83
2023/08/31 10:16:29;;;;;;;4.75;2.45;;;;;;;19.34;80.99;100925.22;4884911;29;20063;-82
2023/08/31 10:18:58;;;;;;;4.07;2.80;;;;;;;19.31;80.35;100920.28;4899786;29;20111;-82
2023/08/31 10:21:24;;;;;;;4.03;2.80;;;;;;;19.23;77.79;100923.53;4899955;29;20456;-82
2023/08/31 10:23:50;;;;;;;4.20;2.57;;;;;;;19.14;76.04;100925.19;4900114;29;20036;-82
2023/08/31 10:26:30;;;;;;;6.82;2.83;;;;;;;18.98;78.08;100910.56;4900169;29;20028;-83
2023/08/31 10:28:57;;;;;;;5.85;3.10;;;;;;;18.79;78.82;100934.91;4900242;29;20036;-83
2023/08/31 10:31:23;;;;;;;6.45;3.45;;;;;;;18.82;80.04;100939.88;4916119;29;20052;-82
2023/08/31 10:34:09;;;;;;;5.53;2.77;;;;;;;19.01;82.18;100918.25;4917172;29;20087;-82
2023/08/31 10:36:40;;;;;;;5.63;2.67;;;;;;;18.92;80.64;100921.53;4917081;29;20032;-82
2023/08/31 10:39:13;;;;;;;6.03;2.58;;;;;;;18.67;78.50;100902.97;4900218;29;20047;-82
2023/08/31 10:41:39;;;;;;;5.90;2.75;;;;;;;18.73;80.14;100906.59;4900017;29;20044;-82
2023/08/31 10:44:37;;;;;;;3.87;2.30;;;;;;;18.96;80.79;100899.00;4884643;29;20048;-82
2023/08/31 10:47:04;;;;;;;6.00;2.40;;;;;;;19.07;75.24;100898.78;4859238;29;20781;-83
2023/08/31 10:49:31;;;;;;;5.40;2.60;;;;;;;19.02;74.54;100887.75;4915837;29;20035;-82
2023/08/31 10:51:58;;;;;;;8.43;2.38;;;;;;;18.99;74.93;100904.78;4900099;29;20028;-82
2023/08/31 10:54:31;;;;;;;5.40;2.38;;;;;;;18.99;74.02;100890.22;4900123;29;20184;-82
2023/08/31 10:57:08;;;;;;;6.10;2.17;;;;;;;19.23;72.13;100887.78;4917204;29;20067;-82
2023/08/31 10:59:51;;;;;;;5.97;1.80;;;;;;;19.68;73.29;100888.94;4903530;29;20511;-83
2023/08/31 11:02:32;;;;;;;4.90;2.10;;;;;;;20.25;69.75;100897.94;4920599;29;20028;-83
2023/08/31 11:05:17;;;;;;;5.78;2.15;;;;;;;20.45;68.58;100882.47;4920474;29;20044;-83
2023/08/31 11:07:44;;;;;;;6.25;2.25;;;;;;;20.10;67.43;100889.72;4903599;29;20032;-83
2023/08/31 11:10:24;;;;;;;4.50;2.10;;;;;;;19.60;71.25;100882.03;4920329;29;20035;-83
2023/08/31 11:12:57;;;;;;;6.33;2.27;;;;;;;19.26;72.47;100896.31;4920254;29;20058;-83
2023/08/31 11:15:29;;;;;;;4.88;1.98;;;;;;;19.13;72.44;100893.25;4903176;29;20444;-82
2023/08/31 11:17:55;;;;;;;8.98;2.20;;;;;;;19.39;71.94;100883.94;4902752;29;20087;-82